createdAt,value
2018-12-14T00:00:46.589Z,17.63
2018-12-14T00:01:46.728Z,17.64
2018-12-14T00:02:46.471Z,17.64
2018-12-14T00:03:46.672Z,17.63
2018-12-14T00:04:46.706Z,17.64
2018-12-14T00:05:46.679Z,17.62
2018-12-14T00:06:46.826Z,17.62
2018-12-14T00:07:46.689Z,17.63
2018-12-14T00:08:46.655Z,17.64
2018-12-14T00:09:46.546Z,17.63
2018-12-14T00:10:46.651Z,17.63
2018-12-14T00:11:46.930Z,17.63
2018-12-14T00:12:47.501Z,17.62
2018-12-14T00:13:46.813Z,17.63
2018-12-14T00:14:46.982Z,17.62
2018-12-14T00:15:46.653Z,17.63
2018-12-14T00:16:46.916Z,17.62
2018-12-14T00:17:46.758Z,17.63
2018-12-14T00:18:46.698Z,17.61
2018-12-14T00:19:46.707Z,17.61
2018-12-14T00:20:46.884Z,17.6
2018-12-14T00:21:46.892Z,17.6
2018-12-14T00:22:47.040Z,17.62
2018-12-14T00:23:46.514Z,17.61
2018-12-14T00:24:46.670Z,17.59
2018-12-14T00:25:46.524Z,17.59
2018-12-14T00:26:46.637Z,17.59
2018-12-14T00:27:46.587Z,17.61
2018-12-14T00:28:46.913Z,17.6
2018-12-14T00:29:46.897Z,17.59
2018-12-14T00:30:46.565Z,17.59
2018-12-14T00:31:46.704Z,17.61
2018-12-14T00:32:46.866Z,17.61
2018-12-14T00:33:46.669Z,17.59
2018-12-14T00:34:46.984Z,17.59
2018-12-14T00:35:46.674Z,17.59
2018-12-14T00:36:46.487Z,17.58
2018-12-14T00:37:46.601Z,17.6
2018-12-14T00:38:46.965Z,17.58
2018-12-14T00:39:46.812Z,17.6
2018-12-14T00:40:46.747Z,17.56
2018-12-14T00:41:52.277Z,17.59
2018-12-14T00:42:46.531Z,17.59
2018-12-14T00:43:47.014Z,17.58
2018-12-14T00:44:47.139Z,17.59
2018-12-14T00:45:46.733Z,17.56
2018-12-14T00:46:46.496Z,17.58
2018-12-14T00:47:46.617Z,17.55
2018-12-14T00:48:46.681Z,17.59
2018-12-14T00:49:46.608Z,17.55
2018-12-14T00:50:47.147Z,17.59
2018-12-14T00:51:46.854Z,17.58
2018-12-14T00:52:46.737Z,17.55
2018-12-14T00:53:46.560Z,17.55
2018-12-14T00:54:46.471Z,17.54
2018-12-14T00:55:46.773Z,17.55
2018-12-14T00:56:46.829Z,17.55
2018-12-14T00:57:47.226Z,17.55
2018-12-14T00:58:46.899Z,17.54
2018-12-14T00:59:47.079Z,17.54
2018-12-14T01:00:46.566Z,17.54
2018-12-14T01:01:46.574Z,17.54
2018-12-14T01:02:46.802Z,17.54
2018-12-14T01:03:46.677Z,17.54
2018-12-14T01:04:46.676Z,17.53
2018-12-14T01:05:46.580Z,17.54
2018-12-14T01:06:47.512Z,17.52
2018-12-14T01:07:46.658Z,17.54
2018-12-14T01:08:46.807Z,17.52
2018-12-14T01:09:46.653Z,17.55
2018-12-14T01:10:46.690Z,17.53
2018-12-14T01:11:47.006Z,17.5
2018-12-14T01:12:46.698Z,17.53
2018-12-14T01:13:47.119Z,17.52
2018-12-14T01:14:47.581Z,17.54
2018-12-14T01:15:46.486Z,17.5
2018-12-14T01:16:46.717Z,17.51
2018-12-14T01:17:46.748Z,17.5
2018-12-14T01:18:46.678Z,17.5
2018-12-14T01:19:46.433Z,17.51
2018-12-14T01:20:46.999Z,17.5
2018-12-14T01:21:46.587Z,17.5
2018-12-14T01:22:48.006Z,17.49
2018-12-14T01:23:46.627Z,17.49
2018-12-14T01:24:47.386Z,17.5
2018-12-14T01:25:46.891Z,17.49
2018-12-14T01:26:47.013Z,17.5
2018-12-14T01:27:46.533Z,17.51
2018-12-14T01:28:46.686Z,17.48
2018-12-14T01:29:46.796Z,17.48
2018-12-14T01:30:46.431Z,17.49
2018-12-14T01:31:46.588Z,17.51
2018-12-14T01:32:46.544Z,17.48
2018-12-14T01:33:46.753Z,17.48
2018-12-14T01:34:46.498Z,17.48
2018-12-14T01:35:46.757Z,17.48
2018-12-14T01:36:46.900Z,17.47
2018-12-14T01:37:46.782Z,17.47
2018-12-14T01:38:46.699Z,17.47
2018-12-14T01:39:46.909Z,17.47
2018-12-14T01:40:46.749Z,17.47
2018-12-14T01:41:46.740Z,17.48
2018-12-14T01:42:46.710Z,17.46
2018-12-14T01:43:46.944Z,17.47
2018-12-14T01:44:47.057Z,17.46
2018-12-14T01:45:46.655Z,17.47
2018-12-14T01:46:46.684Z,17.46
2018-12-14T01:47:46.881Z,17.46
2018-12-14T01:48:46.537Z,17.45
2018-12-14T01:49:47.073Z,17.46
2018-12-14T01:50:46.518Z,17.44
2018-12-14T01:51:46.785Z,17.44
2018-12-14T01:52:46.483Z,17.45
2018-12-14T01:53:46.881Z,17.44
2018-12-14T01:54:46.674Z,17.43
2018-12-14T01:55:46.911Z,17.44
2018-12-14T01:56:46.618Z,17.44
2018-12-14T01:57:47.315Z,17.41
2018-12-14T01:58:46.667Z,17.4
2018-12-14T01:59:46.687Z,17.44
2018-12-14T02:00:46.847Z,17.43
2018-12-14T02:01:46.981Z,17.45
2018-12-14T02:02:46.982Z,17.43
2018-12-14T02:03:46.874Z,17.43
2018-12-14T02:04:46.857Z,17.43
2018-12-14T02:05:46.881Z,17.4
2018-12-14T02:06:46.703Z,17.41
2018-12-14T02:07:46.885Z,17.4
2018-12-14T02:08:47.553Z,17.4
2018-12-14T02:09:46.501Z,17.4
2018-12-14T02:10:46.658Z,17.4
2018-12-14T02:11:46.466Z,17.39
2018-12-14T02:12:46.675Z,17.37
2018-12-14T02:13:46.843Z,17.4
2018-12-14T02:14:46.550Z,17.4
2018-12-14T02:15:46.478Z,17.4
2018-12-14T02:16:46.954Z,17.4
2018-12-14T02:17:46.699Z,17.39
2018-12-14T02:18:46.760Z,17.4
2018-12-14T02:19:46.986Z,17.37
2018-12-14T02:20:46.983Z,17.4
2018-12-14T02:21:46.854Z,17.4
2018-12-14T02:22:46.895Z,17.39
2018-12-14T02:23:46.551Z,17.38
2018-12-14T02:24:46.485Z,17.37
2018-12-14T02:25:46.481Z,17.38
2018-12-14T02:26:46.654Z,17.37
2018-12-14T02:27:46.728Z,17.38
2018-12-14T02:28:46.754Z,17.37
2018-12-14T02:29:46.754Z,17.36
2018-12-14T02:30:46.880Z,17.37
2018-12-14T02:31:46.869Z,17.34
2018-12-14T02:32:46.935Z,17.37
2018-12-14T02:33:46.395Z,17.37
2018-12-14T02:34:46.664Z,17.36
2018-12-14T02:35:46.827Z,17.36
2018-12-14T02:36:46.989Z,17.37
2018-12-14T02:37:46.527Z,17.36
2018-12-14T02:38:46.839Z,17.35
2018-12-14T02:39:46.755Z,17.36
2018-12-14T02:40:47.037Z,17.33
2018-12-14T02:41:46.566Z,17.35
2018-12-14T02:42:46.652Z,17.33
2018-12-14T02:43:46.882Z,17.34
2018-12-14T02:44:46.999Z,17.34
2018-12-14T02:45:46.764Z,17.34
2018-12-14T02:46:46.518Z,17.35
2018-12-14T02:47:47.019Z,17.35
2018-12-14T02:48:46.805Z,17.35
2018-12-14T02:49:46.579Z,17.33
2018-12-14T02:50:46.531Z,17.34
2018-12-14T02:51:46.577Z,17.34
2018-12-14T02:52:47.533Z,17.34
2018-12-14T02:53:46.693Z,17.33
2018-12-14T02:54:47.115Z,17.34
2018-12-14T02:55:46.626Z,17.32
2018-12-14T02:56:46.644Z,17.33
2018-12-14T02:57:46.436Z,17.32
2018-12-14T02:58:46.533Z,17.32
2018-12-14T02:59:46.774Z,17.31
2018-12-14T03:00:46.753Z,17.31
2018-12-14T03:01:46.693Z,17.31
2018-12-14T03:02:47.093Z,17.32
2018-12-14T03:03:46.960Z,17.32
2018-12-14T03:04:46.348Z,17.31
2018-12-14T03:05:46.714Z,17.32
2018-12-14T03:06:46.705Z,17.3
2018-12-14T03:07:46.523Z,17.3
2018-12-14T03:08:46.706Z,17.3
2018-12-14T03:09:46.506Z,17.28
2018-12-14T03:10:46.543Z,17.29
2018-12-14T03:11:46.425Z,17.29
2018-12-14T03:12:46.846Z,17.29
2018-12-14T03:13:46.704Z,17.28
2018-12-14T03:14:46.488Z,17.28
2018-12-14T03:15:46.687Z,17.28
2018-12-14T03:16:46.698Z,17.3
2018-12-14T03:17:46.504Z,17.28
2018-12-14T03:18:46.457Z,17.3
2018-12-14T03:19:46.513Z,17.28
2018-12-14T03:20:46.992Z,17.28
2018-12-14T03:21:46.845Z,17.26
2018-12-14T03:22:46.714Z,17.26
2018-12-14T03:23:46.454Z,17.28
2018-12-14T03:24:46.525Z,17.28
2018-12-14T03:25:46.330Z,17.28
2018-12-14T03:26:46.614Z,17.28
2018-12-14T03:27:46.360Z,17.25
2018-12-14T03:28:46.469Z,17.28
2018-12-14T03:29:46.761Z,17.26
2018-12-14T03:30:46.473Z,17.24
2018-12-14T03:31:46.840Z,17.24
2018-12-14T03:32:47.391Z,17.24
2018-12-14T03:33:46.684Z,17.28
2018-12-14T03:34:46.693Z,17.26
2018-12-14T03:35:46.838Z,17.25
2018-12-14T03:36:47.066Z,17.25
2018-12-14T03:37:46.440Z,17.24
2018-12-14T03:38:46.682Z,17.25
2018-12-14T03:39:46.481Z,17.24
2018-12-14T03:40:46.544Z,17.23
2018-12-14T03:41:46.688Z,17.24
2018-12-14T03:42:46.740Z,17.25
2018-12-14T03:43:46.887Z,17.23
2018-12-14T03:44:46.778Z,17.23
2018-12-14T03:45:46.433Z,17.23
2018-12-14T03:46:46.709Z,17.23
2018-12-14T03:47:46.586Z,17.23
2018-12-14T03:48:46.585Z,17.24
2018-12-14T03:49:46.833Z,17.23
2018-12-14T03:50:46.546Z,17.23
2018-12-14T03:51:46.836Z,17.22
2018-12-14T03:52:46.740Z,17.21
2018-12-14T03:53:46.768Z,17.22
2018-12-14T03:54:46.853Z,17.21
2018-12-14T03:55:46.867Z,17.21
2018-12-14T03:56:46.718Z,17.21
2018-12-14T03:57:46.471Z,17.23
2018-12-14T03:58:46.668Z,17.21
2018-12-14T03:59:46.522Z,17.22
2018-12-14T04:00:46.477Z,17.21
2018-12-14T04:01:46.798Z,17.2
2018-12-14T04:02:46.580Z,17.2
2018-12-14T04:03:46.673Z,17.19
2018-12-14T04:04:46.539Z,17.2
2018-12-14T04:05:46.619Z,17.21
2018-12-14T04:06:46.448Z,17.18
2018-12-14T04:07:46.530Z,17.2
2018-12-14T04:08:47.284Z,17.2
2018-12-14T04:09:46.517Z,17.2
2018-12-14T04:10:46.653Z,17.19
2018-12-14T04:11:46.826Z,17.19
2018-12-14T04:12:46.700Z,17.18
2018-12-14T04:13:46.517Z,17.19
2018-12-14T04:14:47.089Z,17.19
2018-12-14T04:15:46.435Z,17.19
2018-12-14T04:16:46.799Z,17.19
2018-12-14T04:17:46.748Z,17.2
2018-12-14T04:18:47.457Z,17.18
2018-12-14T04:19:46.634Z,17.19
2018-12-14T04:20:47.392Z,17.18
2018-12-14T04:21:46.510Z,17.19
2018-12-14T04:22:46.527Z,17.17
2018-12-14T04:23:46.700Z,17.19
2018-12-14T04:24:47.080Z,17.17
2018-12-14T04:25:46.541Z,17.17
2018-12-14T04:26:46.870Z,17.2
2018-12-14T04:27:46.432Z,17.18
2018-12-14T04:28:47.076Z,17.19
2018-12-14T04:29:46.495Z,17.19
2018-12-14T04:30:46.407Z,17.17
2018-12-14T04:31:46.751Z,17.19
2018-12-14T04:32:46.735Z,17.18
2018-12-14T04:33:46.577Z,17.16
2018-12-14T04:34:46.433Z,17.17
2018-12-14T04:35:46.606Z,17.17
2018-12-14T04:36:46.732Z,17.16
2018-12-14T04:37:46.582Z,17.17
2018-12-14T04:38:47.059Z,17.17
2018-12-14T04:39:46.476Z,17.18
2018-12-14T04:40:46.641Z,17.17
2018-12-14T04:41:46.405Z,17.16
2018-12-14T04:42:49.238Z,17.15
2018-12-14T04:43:46.666Z,17.16
2018-12-14T04:44:46.838Z,17.15
2018-12-14T04:45:47.091Z,17.14
2018-12-14T04:46:46.407Z,17.14
2018-12-14T04:47:46.574Z,17.13
2018-12-14T04:48:47.204Z,17.14
2018-12-14T04:49:46.461Z,17.16
2018-12-14T04:50:46.378Z,17.15
2018-12-14T04:51:46.769Z,17.13
2018-12-14T04:52:46.739Z,17.14
2018-12-14T04:53:46.438Z,17.15
2018-12-14T04:54:46.864Z,17.16
2018-12-14T04:55:46.440Z,17.17
2018-12-14T04:56:46.782Z,17.16
2018-12-14T04:57:46.405Z,17.17
2018-12-14T04:58:46.430Z,17.16
2018-12-14T04:59:46.673Z,17.19
2018-12-14T05:00:46.720Z,17.18
2018-12-14T05:01:46.725Z,17.19
2018-12-14T05:02:46.801Z,17.19
2018-12-14T05:03:46.433Z,17.19
2018-12-14T05:04:46.734Z,17.2
2018-12-14T05:05:46.542Z,17.23
2018-12-14T05:06:46.453Z,17.23
2018-12-14T05:07:46.532Z,17.25
2018-12-14T05:08:46.822Z,17.26
2018-12-14T05:09:46.489Z,17.28
2018-12-14T05:10:46.462Z,17.28
2018-12-14T05:11:46.685Z,17.31
2018-12-14T05:12:46.895Z,17.31
2018-12-14T05:13:46.523Z,17.32
2018-12-14T05:14:46.419Z,17.33
2018-12-14T05:15:46.464Z,17.32
2018-12-14T05:16:46.811Z,17.34
2018-12-14T05:17:46.748Z,17.36
2018-12-14T05:18:46.614Z,17.38
2018-12-14T05:19:46.677Z,17.38
2018-12-14T05:20:46.890Z,17.4
2018-12-14T05:21:46.974Z,17.4
2018-12-14T05:22:47.044Z,17.45
2018-12-14T05:23:46.426Z,17.44
2018-12-14T05:24:46.464Z,17.46
2018-12-14T05:25:46.359Z,17.46
2018-12-14T05:26:46.469Z,17.48
2018-12-14T05:27:47.494Z,17.5
2018-12-14T05:28:46.389Z,17.51
2018-12-14T05:29:46.941Z,17.54
2018-12-14T05:30:46.912Z,17.56
2018-12-14T05:31:46.904Z,17.55
2018-12-14T05:32:46.322Z,17.59
2018-12-14T05:33:46.385Z,17.61
2018-12-14T05:34:46.836Z,17.61
2018-12-14T05:35:46.486Z,17.64
2018-12-14T05:36:46.717Z,17.64
2018-12-14T05:37:46.345Z,17.67
2018-12-14T05:38:46.898Z,17.67
2018-12-14T05:39:46.905Z,17.67
2018-12-14T05:40:46.678Z,17.69
2018-12-14T05:41:46.915Z,17.69
2018-12-14T05:42:46.475Z,17.72
2018-12-14T05:43:46.691Z,17.74
2018-12-14T05:44:46.770Z,17.74
2018-12-14T05:45:46.389Z,17.76
2018-12-14T05:46:46.560Z,17.77
2018-12-14T05:47:46.421Z,17.77
2018-12-14T05:48:46.512Z,17.76
2018-12-14T05:49:46.336Z,17.81
2018-12-14T05:50:46.728Z,17.8
2018-12-14T05:51:46.767Z,17.82
2018-12-14T05:52:47.073Z,17.82
2018-12-14T05:53:46.775Z,17.82
2018-12-14T05:54:46.497Z,17.85
2018-12-14T05:55:46.475Z,17.87
2018-12-14T05:56:46.460Z,17.82
2018-12-14T05:57:46.784Z,17.87
2018-12-14T05:58:46.543Z,17.84
2018-12-14T05:59:46.430Z,17.88
2018-12-14T06:00:46.549Z,17.88
2018-12-14T06:01:46.433Z,17.88
2018-12-14T06:02:46.485Z,17.9
2018-12-14T06:03:46.463Z,17.91
2018-12-14T06:04:46.766Z,17.91
2018-12-14T06:05:46.555Z,17.89
2018-12-14T06:06:46.530Z,17.91
2018-12-14T06:07:46.468Z,17.92
2018-12-14T06:08:47.226Z,17.93
2018-12-14T06:09:46.295Z,17.9
2018-12-14T06:10:46.598Z,17.92
2018-12-14T06:11:46.454Z,17.91
2018-12-14T06:12:46.843Z,17.93
2018-12-14T06:13:46.456Z,17.95
2018-12-14T06:14:46.839Z,17.94
2018-12-14T06:15:46.352Z,17.93
2018-12-14T06:16:46.448Z,17.95
2018-12-14T06:17:46.353Z,17.93
2018-12-14T06:18:46.310Z,17.92
2018-12-14T06:19:46.520Z,17.95
2018-12-14T06:20:46.695Z,17.93
2018-12-14T06:21:46.873Z,17.95
2018-12-14T06:22:47.206Z,17.94
2018-12-14T06:23:46.480Z,17.94
2018-12-14T06:24:46.436Z,17.94
2018-12-14T06:25:46.632Z,17.93
2018-12-14T06:26:46.526Z,17.94
2018-12-14T06:27:46.254Z,17.95
2018-12-14T06:28:46.479Z,17.95
2018-12-14T06:29:46.365Z,17.95
2018-12-14T06:30:46.546Z,17.95
2018-12-14T06:31:46.378Z,17.95
2018-12-14T06:32:46.441Z,17.94
2018-12-14T06:33:46.619Z,17.96
2018-12-14T06:34:46.486Z,17.93
2018-12-14T06:35:46.712Z,17.95
2018-12-14T06:36:47.307Z,17.94
2018-12-14T06:37:46.495Z,17.94
2018-12-14T06:38:46.340Z,17.95
2018-12-14T06:39:46.600Z,17.95
2018-12-14T06:40:46.544Z,17.94
2018-12-14T06:41:46.435Z,17.96
2018-12-14T06:42:47.020Z,17.94
2018-12-14T06:43:46.444Z,17.94
2018-12-14T06:44:46.421Z,17.95
2018-12-14T06:45:46.314Z,17.94
2018-12-14T06:46:47.016Z,17.94
2018-12-14T06:47:46.341Z,17.93
2018-12-14T06:48:46.396Z,17.94
2018-12-14T06:49:46.753Z,17.93
2018-12-14T06:50:46.444Z,17.93
2018-12-14T06:51:46.492Z,17.93
2018-12-14T06:52:46.332Z,17.93
2018-12-14T06:53:47.172Z,17.92
2018-12-14T06:54:46.310Z,17.93
2018-12-14T06:55:46.788Z,17.92
2018-12-14T06:56:46.729Z,17.94
2018-12-14T06:57:46.451Z,17.94
2018-12-14T06:58:46.604Z,17.93
2018-12-14T06:59:46.366Z,17.91
2018-12-14T07:00:46.758Z,17.91
2018-12-14T07:01:46.649Z,17.91
2018-12-14T07:02:46.627Z,17.91
2018-12-14T07:03:46.361Z,17.91
2018-12-14T07:04:46.795Z,17.92
2018-12-14T07:05:46.998Z,17.91
2018-12-14T07:06:46.721Z,17.92
2018-12-14T07:07:46.799Z,17.91
2018-12-14T07:08:46.622Z,17.91
2018-12-14T07:09:46.787Z,17.92
2018-12-14T07:10:46.340Z,17.91
2018-12-14T07:11:46.960Z,17.91
2018-12-14T07:12:46.922Z,17.92
2018-12-14T07:13:46.688Z,17.92
2018-12-14T07:14:46.332Z,17.91
2018-12-14T07:15:46.599Z,17.91
2018-12-14T07:16:46.497Z,17.92
2018-12-14T07:17:46.370Z,17.9
2018-12-14T07:18:46.519Z,17.91
2018-12-14T07:19:46.983Z,17.9
2018-12-14T07:20:46.635Z,17.91
2018-12-14T07:21:46.743Z,17.9
2018-12-14T07:22:46.596Z,17.91
2018-12-14T07:23:46.329Z,17.92
2018-12-14T07:24:46.549Z,17.9
2018-12-14T07:25:46.446Z,17.9
2018-12-14T07:26:47.053Z,17.91
2018-12-14T07:27:46.407Z,17.9
2018-12-14T07:28:46.612Z,17.91
2018-12-14T07:29:46.716Z,17.9
2018-12-14T07:30:46.684Z,17.89
2018-12-14T07:31:46.675Z,17.9
2018-12-14T07:32:46.284Z,17.9
2018-12-14T07:33:46.295Z,17.9
2018-12-14T07:34:46.803Z,17.9
2018-12-14T07:35:46.726Z,17.9
2018-12-14T07:36:47.107Z,17.91
2018-12-14T07:37:46.749Z,17.91
2018-12-14T07:38:48.524Z,17.89
2018-12-14T07:39:46.577Z,17.92
2018-12-14T07:40:46.529Z,17.89
2018-12-14T07:41:46.344Z,17.91
2018-12-14T07:42:46.313Z,17.9
2018-12-14T07:43:47.146Z,17.91
2018-12-14T07:44:47.589Z,17.92
2018-12-14T07:45:46.762Z,17.9
2018-12-14T07:46:46.754Z,17.92
2018-12-14T07:47:46.451Z,17.92
2018-12-14T07:48:46.454Z,17.93
2018-12-14T07:49:46.794Z,17.91
2018-12-14T07:50:46.352Z,17.91
2018-12-14T07:51:46.690Z,17.92
2018-12-14T07:52:46.689Z,17.92
2018-12-14T07:53:46.546Z,17.94
2018-12-14T07:54:46.613Z,17.92
2018-12-14T07:55:46.575Z,17.9
2018-12-14T07:56:46.370Z,17.93
2018-12-14T07:57:46.498Z,17.92
2018-12-14T07:58:46.940Z,17.91
2018-12-14T07:59:46.596Z,17.93
2018-12-14T08:00:46.955Z,17.94
2018-12-14T08:01:46.362Z,17.91
2018-12-14T08:02:46.478Z,17.92
2018-12-14T08:03:46.355Z,17.93
2018-12-14T08:04:46.779Z,17.94
2018-12-14T08:05:46.315Z,17.94
2018-12-14T08:06:46.791Z,17.95
2018-12-14T08:07:46.766Z,17.95
2018-12-14T08:08:46.819Z,17.96
2018-12-14T08:09:46.770Z,17.94
2018-12-14T08:10:46.254Z,17.95
2018-12-14T08:11:46.471Z,17.97
2018-12-14T08:12:46.561Z,17.98
2018-12-14T08:13:47.576Z,17.96
2018-12-14T08:14:46.369Z,17.96
2018-12-14T08:15:46.475Z,17.96
2018-12-14T08:16:46.862Z,17.98
2018-12-14T08:17:46.465Z,17.97
2018-12-14T08:18:46.783Z,17.97
2018-12-14T08:19:46.406Z,17.99
2018-12-14T08:20:46.424Z,17.99
2018-12-14T08:21:46.341Z,17.98
2018-12-14T08:22:46.467Z,17.98
2018-12-14T08:23:46.452Z,17.99
2018-12-14T08:24:46.371Z,18.02
2018-12-14T08:25:46.462Z,18.02
2018-12-14T08:26:46.674Z,18.02
2018-12-14T08:27:46.421Z,18.02
2018-12-14T08:28:46.363Z,18
2018-12-14T08:29:46.781Z,18
2018-12-14T08:30:46.295Z,17.99
2018-12-14T08:31:46.403Z,18.03
2018-12-14T08:32:46.631Z,17.99
2018-12-14T08:33:46.407Z,18.02
2018-12-14T08:34:51.597Z,18.03
2018-12-14T08:35:46.362Z,18.02
2018-12-14T08:36:46.720Z,18.03
2018-12-14T08:37:46.294Z,18
2018-12-14T08:38:47.308Z,18.04
2018-12-14T08:39:46.847Z,18.03
2018-12-14T08:40:46.486Z,18.03
2018-12-14T08:41:46.541Z,18
2018-12-14T08:42:46.269Z,18.04
2018-12-14T08:43:46.352Z,18.04
2018-12-14T08:44:46.346Z,18.04
2018-12-14T08:45:46.974Z,18.05
2018-12-14T08:46:46.617Z,18.04
2018-12-14T08:47:46.706Z,18.05
2018-12-14T08:48:46.412Z,18.04
2018-12-14T08:49:46.715Z,18.04
2018-12-14T08:50:46.726Z,18.05
2018-12-14T08:51:46.380Z,18.04
2018-12-14T08:52:46.631Z,18.04
2018-12-14T08:53:46.576Z,18.07
2018-12-14T08:54:46.496Z,18.04
2018-12-14T08:55:47.109Z,18.05
2018-12-14T08:56:46.749Z,18.03
2018-12-14T08:57:46.745Z,18.04
2018-12-14T08:58:46.553Z,18.03
2018-12-14T08:59:46.826Z,18.04
2018-12-14T09:00:47.351Z,18.05
2018-12-14T09:01:46.366Z,18.07
2018-12-14T09:02:46.222Z,18.06
2018-12-14T09:03:46.358Z,18.04
2018-12-14T09:04:46.414Z,18
2018-12-14T09:05:46.516Z,18.03
2018-12-14T09:06:46.436Z,18.03
2018-12-14T09:07:46.942Z,18.04
2018-12-14T09:08:46.555Z,18.05
2018-12-14T09:09:47.557Z,18.03
2018-12-14T09:10:46.783Z,18.05
2018-12-14T09:11:46.245Z,18.03
2018-12-14T09:12:46.396Z,18.05
2018-12-14T09:13:48.212Z,18.03
2018-12-14T09:14:47.192Z,18.04
2018-12-14T09:15:46.890Z,18.04
2018-12-14T09:16:46.717Z,18.04
2018-12-14T09:17:46.495Z,18.04
2018-12-14T09:18:46.522Z,18.05
2018-12-14T09:19:46.260Z,18.05
2018-12-14T09:20:46.334Z,18.04
2018-12-14T09:21:46.734Z,18.04
2018-12-14T09:22:46.320Z,18.03
2018-12-14T09:23:46.511Z,18.04
2018-12-14T09:24:46.259Z,18.05
2018-12-14T09:25:46.757Z,18.04
2018-12-14T09:26:46.665Z,18.03
2018-12-14T09:27:46.327Z,18.02
2018-12-14T09:28:46.464Z,18.06
2018-12-14T09:29:47.129Z,18.04
2018-12-14T09:30:46.811Z,18.06
2018-12-14T09:31:46.414Z,18.05
2018-12-14T09:32:46.912Z,18.05
2018-12-14T09:33:46.272Z,18.04
2018-12-14T09:34:46.941Z,18.04
2018-12-14T09:35:46.565Z,18.04
2018-12-14T09:36:46.728Z,18.04
2018-12-14T09:37:46.750Z,18.05
2018-12-14T09:38:46.228Z,18.04
2018-12-14T09:39:46.791Z,18.05
2018-12-14T09:40:46.287Z,18.04
2018-12-14T09:41:46.937Z,18.04
2018-12-14T09:42:46.227Z,18.05
2018-12-14T09:43:46.277Z,18.05
2018-12-14T09:44:46.539Z,18.04
2018-12-14T09:45:46.599Z,18.02
2018-12-14T09:46:47.330Z,18.05
2018-12-14T09:47:47.338Z,18.05
2018-12-14T09:48:46.724Z,18.04
2018-12-14T09:49:46.663Z,18.03
2018-12-14T09:50:46.380Z,18.04
2018-12-14T09:51:46.298Z,18.04
2018-12-14T09:52:46.957Z,18.03
2018-12-14T09:53:46.416Z,18.03
2018-12-14T09:54:46.725Z,18.04
2018-12-14T09:55:46.329Z,18.04
2018-12-14T09:56:46.196Z,18.04
2018-12-14T09:57:46.290Z,18.04
2018-12-14T09:58:46.779Z,18.03
2018-12-14T09:59:46.265Z,18.05
2018-12-14T10:00:46.433Z,18.04
2018-12-14T10:01:46.425Z,18.04
2018-12-14T10:02:46.770Z,18.05
2018-12-14T10:03:46.321Z,18.05
2018-12-14T10:04:46.726Z,18.04
2018-12-14T10:05:46.338Z,18.04
2018-12-14T10:06:46.373Z,18.04
2018-12-14T10:07:47.368Z,18.02
2018-12-14T10:08:46.735Z,18.05
2018-12-14T10:09:46.712Z,18.07
2018-12-14T10:10:46.210Z,18.05
2018-12-14T10:11:46.400Z,18.07
2018-12-14T10:12:46.535Z,18.05
2018-12-14T10:13:46.394Z,18.04
2018-12-14T10:14:46.220Z,18.07
2018-12-14T10:15:46.403Z,18.05
2018-12-14T10:16:46.385Z,18.07
2018-12-14T10:17:46.741Z,18.07
2018-12-14T10:18:46.325Z,18.07
2018-12-14T10:19:46.381Z,18.08
2018-12-14T10:20:46.651Z,18.07
2018-12-14T10:21:47.077Z,18.06
2018-12-14T10:22:46.570Z,18.07
2018-12-14T10:23:46.835Z,18.08
2018-12-14T10:24:46.464Z,18.08
2018-12-14T10:25:46.418Z,18.06
2018-12-14T10:26:46.552Z,18.06
2018-12-14T10:27:46.321Z,18.07
2018-12-14T10:28:47.450Z,18.09
2018-12-14T10:29:46.638Z,18.08
2018-12-14T10:30:46.437Z,18.07
2018-12-14T10:31:46.552Z,18.07
2018-12-14T10:32:46.617Z,18.08
2018-12-14T10:33:46.428Z,18.08
2018-12-14T10:34:46.187Z,18.07
2018-12-14T10:35:46.883Z,18.07
2018-12-14T10:36:46.295Z,18.07
2018-12-14T10:37:46.663Z,18.07
2018-12-14T10:38:46.507Z,18.07
2018-12-14T10:39:46.471Z,18.06
2018-12-14T10:40:46.284Z,18.07
2018-12-14T10:41:46.178Z,18.08
2018-12-14T10:42:46.687Z,18.08
2018-12-14T10:43:46.531Z,18.1
2018-12-14T10:44:46.375Z,18.06
2018-12-14T10:45:46.225Z,18.08
2018-12-14T10:46:46.325Z,18.08
2018-12-14T10:47:46.290Z,18.07
2018-12-14T10:48:46.268Z,18.08
2018-12-14T10:49:46.961Z,18.08
2018-12-14T10:50:46.323Z,18.08
2018-12-14T10:51:46.436Z,18.09
2018-12-14T10:52:46.233Z,18.08
2018-12-14T10:53:46.373Z,18.07
2018-12-14T10:54:46.400Z,18.09
2018-12-14T10:55:46.367Z,18.07
2018-12-14T10:56:46.838Z,18.08
2018-12-14T10:57:46.380Z,18.06
2018-12-14T10:58:46.515Z,18.08
2018-12-14T10:59:46.276Z,18.06
2018-12-14T11:00:46.897Z,18.08
2018-12-14T11:01:46.509Z,18.08
2018-12-14T11:02:46.572Z,18.08
2018-12-14T11:03:46.407Z,18.08
2018-12-14T11:04:46.245Z,18.06
2018-12-14T11:05:47.298Z,18.06
2018-12-14T11:06:46.566Z,18.08
2018-12-14T11:07:46.450Z,18.08
2018-12-14T11:08:46.496Z,18.08
2018-12-14T11:09:46.959Z,18.07
2018-12-14T11:10:46.522Z,18.07
2018-12-14T11:11:46.379Z,18.05
2018-12-14T11:12:47.293Z,18.06
2018-12-14T11:13:46.735Z,18.05
2018-12-14T11:14:46.896Z,18.07
2018-12-14T11:15:46.816Z,18.07
2018-12-14T11:16:46.858Z,18.08
2018-12-14T11:17:46.307Z,18.06
2018-12-14T11:18:46.325Z,18.05
2018-12-14T11:19:46.452Z,18.07
2018-12-14T11:20:46.715Z,18.07
2018-12-14T11:21:46.878Z,18.07
2018-12-14T11:22:46.421Z,18.06
2018-12-14T11:23:46.588Z,18.06
2018-12-14T11:24:46.176Z,18.05
2018-12-14T11:25:46.712Z,18.08
2018-12-14T11:26:46.310Z,18.07
2018-12-14T11:27:46.956Z,18.06
2018-12-14T11:28:46.656Z,18.07
2018-12-14T11:29:46.706Z,18.06
2018-12-14T11:30:47.261Z,18.06
2018-12-14T11:31:46.213Z,18.09
2018-12-14T11:32:46.462Z,18.06
2018-12-14T11:33:46.450Z,18.08
2018-12-14T11:34:46.747Z,18.05
2018-12-14T11:35:46.672Z,18.08
2018-12-14T11:36:46.449Z,18.08
2018-12-14T11:37:46.471Z,18.07
2018-12-14T11:38:46.279Z,18.05
2018-12-14T11:39:46.363Z,18.08
2018-12-14T11:40:46.720Z,18.04
2018-12-14T11:41:46.249Z,18.06
2018-12-14T11:42:46.768Z,18.06
2018-12-14T11:43:46.361Z,18.07
2018-12-14T11:44:46.181Z,18.08
2018-12-14T11:45:46.198Z,18.05
2018-12-14T11:46:46.580Z,18.07
2018-12-14T11:47:46.491Z,18.08
2018-12-14T11:48:46.303Z,18.06
2018-12-14T11:49:46.179Z,18.06
2018-12-14T11:50:46.321Z,18.05
2018-12-14T11:51:46.470Z,18.06
2018-12-14T11:52:46.354Z,18.07
2018-12-14T11:53:46.163Z,18.05
2018-12-14T11:54:46.209Z,18.07
2018-12-14T11:55:46.197Z,18.07
2018-12-14T11:56:46.660Z,18.08
2018-12-14T11:57:46.681Z,18.07
2018-12-14T11:58:46.454Z,18.07
2018-12-14T11:59:46.589Z,18.08
2018-12-14T12:00:46.556Z,18.07
2018-12-14T12:01:46.257Z,18.05
2018-12-14T12:02:46.507Z,18.08
2018-12-14T12:03:46.635Z,18.06
2018-12-14T12:04:46.277Z,18.07
2018-12-14T12:05:46.473Z,18.08
2018-12-14T12:06:46.399Z,18.06
2018-12-14T12:07:46.710Z,18.06
2018-12-14T12:08:46.641Z,18.07
2018-12-14T12:09:46.780Z,18.08
2018-12-14T12:10:46.203Z,18.07
2018-12-14T12:11:46.550Z,18.07
2018-12-14T12:12:46.539Z,18.08
2018-12-14T12:13:46.291Z,18.08
2018-12-14T12:14:46.405Z,18.05
2018-12-14T12:15:46.453Z,18.07
2018-12-14T12:16:46.295Z,18.07
2018-12-14T12:17:49.913Z,18.08
2018-12-14T12:18:46.662Z,18.08
2018-12-14T12:19:46.452Z,18.08
2018-12-14T12:20:46.568Z,18.08
2018-12-14T12:21:46.454Z,18.1
2018-12-14T12:22:46.389Z,18.08
2018-12-14T12:23:46.292Z,18.07
2018-12-14T12:24:46.426Z,18.07
2018-12-14T12:25:46.552Z,18.06
2018-12-14T12:26:46.355Z,18.08
2018-12-14T12:27:46.174Z,18.07
2018-12-14T12:28:46.360Z,18.07
2018-12-14T12:29:46.788Z,18.06
2018-12-14T12:30:46.699Z,18.08
2018-12-14T12:31:46.136Z,18.06
2018-12-14T12:32:46.276Z,18.08
2018-12-14T12:33:46.100Z,18.08
2018-12-14T12:34:46.220Z,18.08
2018-12-14T12:35:46.445Z,18.06
2018-12-14T12:36:46.254Z,18.07
2018-12-14T12:37:46.341Z,18.07
2018-12-14T12:38:46.210Z,18.07
2018-12-14T12:39:46.375Z,18.06
2018-12-14T12:40:46.231Z,18.08
2018-12-14T12:41:46.353Z,18.07
2018-12-14T12:42:46.257Z,18.07
2018-12-14T12:43:46.494Z,18.08
2018-12-14T12:44:46.777Z,18.1
2018-12-14T12:45:46.337Z,18.11
2018-12-14T12:46:46.617Z,18.08
2018-12-14T12:47:46.190Z,18.1
2018-12-14T12:48:46.793Z,18.08
2018-12-14T12:49:46.626Z,18.09
2018-12-14T12:50:46.678Z,18.08
2018-12-14T12:51:46.697Z,18.09
2018-12-14T12:52:46.254Z,18.1
2018-12-14T12:53:46.376Z,18.09
2018-12-14T12:54:46.494Z,18.08
2018-12-14T12:55:46.396Z,18.09